sensor_id;sensor_type;location;lat;lon;timestamp;temperature;humidity
70456;DHT22;57916;51.996;5.180;2022-10-04T00:00:22;17.70;65.40
70456;DHT22;57916;51.996;5.180;2022-10-04T00:02:53;17.70;65.30
70456;DHT22;57916;51.996;5.180;2022-10-04T00:05:23;17.70;65.40
70456;DHT22;57916;51.996;5.180;2022-10-04T00:07:55;17.70;65.40
70456;DHT22;57916;51.996;5.180;2022-10-04T00:10:31;17.70;65.30
70456;DHT22;57916;51.996;5.180;2022-10-04T00:13:01;17.70;65.30
70456;DHT22;57916;51.996;5.180;2022-10-04T00:15:34;17.70;65.30
70456;DHT22;57916;51.996;5.180;2022-10-04T00:18:38;17.70;65.30
70456;DHT22;57916;51.996;5.180;2022-10-04T00:21:07;17.70;65.30
70456;DHT22;57916;51.996;5.180;2022-10-04T00:29:31;17.60;65.60
70456;DHT22;57916;51.996;5.180;2022-10-04T00:34:49;17.60;65.50
70456;DHT22;57916;51.996;5.180;2022-10-04T00:37:21;17.50;65.20
70456;DHT22;57916;51.996;5.180;2022-10-04T00:40:00;17.50;65.30
70456;DHT22;57916;51.996;5.180;2022-10-04T00:42:35;17.50;65.40
70456;DHT22;57916;51.996;5.180;2022-10-04T00:45:22;17.50;65.30
70456;DHT22;57916;51.996;5.180;2022-10-04T00:47:59;17.50;65.40
70456;DHT22;57916;51.996;5.180;2022-10-04T00:50:40;17.50;65.40
70456;DHT22;57916;51.996;5.180;2022-10-04T00:53:33;17.50;65.20
70456;DHT22;57916;51.996;5.180;2022-10-04T00:56:03;17.50;65.90
70456;DHT22;57916;51.996;5.180;2022-10-04T00:58:43;17.50;65.30
70456;DHT22;57916;51.996;5.180;2022-10-04T01:01:11;17.50;65.20
70456;DHT22;57916;51.996;5.180;2022-10-04T01:03:41;17.50;65.20
70456;DHT22;57916;51.996;5.180;2022-10-04T01:06:11;17.50;65.20
70456;DHT22;57916;51.996;5.180;2022-10-04T01:08:53;17.50;65.10
70456;DHT22;57916;51.996;5.180;2022-10-04T01:11:28;17.50;65.10
70456;DHT22;57916;51.996;5.180;2022-10-04T01:16:50;17.50;64.90
70456;DHT22;57916;51.996;5.180;2022-10-04T01:19:38;17.50;65.00
70456;DHT22;57916;51.996;5.180;2022-10-04T01:24:41;17.40;65.00
70456;DHT22;57916;51.996;5.180;2022-10-04T01:29:54;17.40;64.80
70456;DHT22;57916;51.996;5.180;2022-10-04T01:32:21;17.40;64.90
70456;DHT22;57916;51.996;5.180;2022-10-04T01:34:48;17.30;65.00
70456;DHT22;57916;51.996;5.180;2022-10-04T01:37:15;17.20;65.00
70456;DHT22;57916;51.996;5.180;2022-10-04T01:39:43;17.20;65.00
70456;DHT22;57916;51.996;5.180;2022-10-04T01:42:17;17.20;65.10
70456;DHT22;57916;51.996;5.180;2022-10-04T01:44:58;17.20;65.00
70456;DHT22;57916;51.996;5.180;2022-10-04T01:47:38;17.20;64.80
70456;DHT22;57916;51.996;5.180;2022-10-04T01:50:46;17.10;64.30
70456;DHT22;57916;51.996;5.180;2022-10-04T01:53:26;17.10;64.00
70456;DHT22;57916;51.996;5.180;2022-10-04T01:56:09;17.10;63.90
70456;DHT22;57916;51.996;5.180;2022-10-04T01:58:47;17.00;64.80
70456;DHT22;57916;51.996;5.180;2022-10-04T02:01:46;16.90;64.30
70456;DHT22;57916;51.996;5.180;2022-10-04T02:04:27;16.90;64.40
70456;DHT22;57916;51.996;5.180;2022-10-04T02:06:56;16.90;64.40
70456;DHT22;57916;51.996;5.180;2022-10-04T02:09:31;16.80;64.40
70456;DHT22;57916;51.996;5.180;2022-10-04T02:12:00;16.70;64.60
70456;DHT22;57916;51.996;5.180;2022-10-04T02:14:31;16.70;64.70
70456;DHT22;57916;51.996;5.180;2022-10-04T02:17:00;16.80;64.80
70456;DHT22;57916;51.996;5.180;2022-10-04T02:19:34;16.70;64.50
70456;DHT22;57916;51.996;5.180;2022-10-04T02:22:03;16.70;64.50
70456;DHT22;57916;51.996;5.180;2022-10-04T02:24:37;16.70;64.70
70456;DHT22;57916;51.996;5.180;2022-10-04T02:27:06;16.70;64.50
70456;DHT22;57916;51.996;5.180;2022-10-04T02:29:33;16.70;64.70
70456;DHT22;57916;51.996;5.180;2022-10-04T02:32:05;16.60;64.60
70456;DHT22;57916;51.996;5.180;2022-10-04T02:34:52;16.60;64.70
70456;DHT22;57916;51.996;5.180;2022-10-04T02:37:25;16.60;64.50
70456;DHT22;57916;51.996;5.180;2022-10-04T02:40:06;16.60;64.40
70456;DHT22;57916;51.996;5.180;2022-10-04T02:45:23;16.50;64.30
70456;DHT22;57916;51.996;5.180;2022-10-04T02:47:57;16.50;64.50
70456;DHT22;57916;51.996;5.180;2022-10-04T02:50:34;16.50;64.30
70456;DHT22;57916;51.996;5.180;2022-10-04T02:55:44;16.30;63.70
70456;DHT22;57916;51.996;5.180;2022-10-04T02:58:16;16.30;63.80
70456;DHT22;57916;51.996;5.180;2022-10-04T03:00:48;16.20;64.60
70456;DHT22;57916;51.996;5.180;2022-10-04T03:03:23;16.20;64.00
70456;DHT22;57916;51.996;5.180;2022-10-04T03:08:28;16.20;63.90
70456;DHT22;57916;51.996;5.180;2022-10-04T03:10:57;16.10;65.40
70456;DHT22;57916;51.996;5.180;2022-10-04T03:13:26;16.10;64.80
70456;DHT22;57916;51.996;5.180;2022-10-04T03:15:53;16.00;64.80
70456;DHT22;57916;51.996;5.180;2022-10-04T03:18:21;16.00;65.00
70456;DHT22;57916;51.996;5.180;2022-10-04T03:20:49;15.90;65.20
70456;DHT22;57916;51.996;5.180;2022-10-04T03:23:18;15.90;65.30
70456;DHT22;57916;51.996;5.180;2022-10-04T03:28:37;15.90;65.40
70456;DHT22;57916;51.996;5.180;2022-10-04T03:31:04;15.80;66.00
70456;DHT22;57916;51.996;5.180;2022-10-04T03:33:31;15.70;66.30
70456;DHT22;57916;51.996;5.180;2022-10-04T03:35:59;15.70;66.30
70456;DHT22;57916;51.996;5.180;2022-10-04T03:38:27;15.80;66.20
70456;DHT22;57916;51.996;5.180;2022-10-04T03:40:56;15.80;66.00
70456;DHT22;57916;51.996;5.180;2022-10-04T03:43:28;15.80;65.80
70456;DHT22;57916;51.996;5.180;2022-10-04T03:46:00;15.80;65.10
70456;DHT22;57916;51.996;5.180;2022-10-04T03:51:04;15.80;64.40
70456;DHT22;57916;51.996;5.180;2022-10-04T03:53:40;15.80;64.40
70456;DHT22;57916;51.996;5.180;2022-10-04T03:56:18;15.80;64.30
70456;DHT22;57916;51.996;5.180;2022-10-04T03:58:46;15.80;64.40
70456;DHT22;57916;51.996;5.180;2022-10-04T04:06:41;15.60;65.40
70456;DHT22;57916;51.996;5.180;2022-10-04T04:09:27;15.60;65.50
70456;DHT22;57916;51.996;5.180;2022-10-04T04:12:08;15.70;65.10
70456;DHT22;57916;51.996;5.180;2022-10-04T04:14:36;15.60;64.80
70456;DHT22;57916;51.996;5.180;2022-10-04T04:19:58;15.70;65.10
70456;DHT22;57916;51.996;5.180;2022-10-04T04:22:34;15.60;65.20
70456;DHT22;57916;51.996;5.180;2022-10-04T04:25:06;15.60;65.20
70456;DHT22;57916;51.996;5.180;2022-10-04T04:27:36;15.60;65.50
70456;DHT22;57916;51.996;5.180;2022-10-04T04:30:07;15.60;65.80
70456;DHT22;57916;51.996;5.180;2022-10-04T04:32:40;15.60;65.70
70456;DHT22;57916;51.996;5.180;2022-10-04T04:35:29;15.50;65.50
70456;DHT22;57916;51.996;5.180;2022-10-04T04:38:24;15.50;65.50
70456;DHT22;57916;51.996;5.180;2022-10-04T04:40:51;15.40;65.70
70456;DHT22;57916;51.996;5.180;2022-10-04T04:43:25;15.40;65.80
70456;DHT22;57916;51.996;5.180;2022-10-04T04:45:53;15.40;65.80
70456;DHT22;57916;51.996;5.180;2022-10-04T04:48:43;15.40;65.80
70456;DHT22;57916;51.996;5.180;2022-10-04T04:51:18;15.50;65.40
70456;DHT22;57916;51.996;5.180;2022-10-04T04:53:47;15.40;65.40
70456;DHT22;57916;51.996;5.180;2022-10-04T04:56:18;15.40;65.70
70456;DHT22;57916;51.996;5.180;2022-10-04T04:58:48;15.30;65.70
70456;DHT22;57916;51.996;5.180;2022-10-04T05:04:14;15.30;65.70
70456;DHT22;57916;51.996;5.180;2022-10-04T05:06:43;15.30;65.50
70456;DHT22;57916;51.996;5.180;2022-10-04T05:09:27;15.30;65.40
70456;DHT22;57916;51.996;5.180;2022-10-04T05:12:05;15.20;65.50
70456;DHT22;57916;51.996;5.180;2022-10-04T05:14:38;15.20;65.70
70456;DHT22;57916;51.996;5.180;2022-10-04T05:17:06;15.20;65.60
70456;DHT22;57916;51.996;5.180;2022-10-04T05:19:36;15.10;65.60
70456;DHT22;57916;51.996;5.180;2022-10-04T05:22:12;15.00;65.80
70456;DHT22;57916;51.996;5.180;2022-10-04T05:24:42;15.00;66.10
70456;DHT22;57916;51.996;5.180;2022-10-04T05:27:15;15.00;66.20
70456;DHT22;57916;51.996;5.180;2022-10-04T05:30:05;15.00;66.10
70456;DHT22;57916;51.996;5.180;2022-10-04T05:41:24;15.10;64.90
70456;DHT22;57916;51.996;5.180;2022-10-04T05:44:30;15.10;65.10
70456;DHT22;57916;51.996;5.180;2022-10-04T05:47:04;15.10;65.40
70456;DHT22;57916;51.996;5.180;2022-10-04T05:49:42;15.00;65.60
70456;DHT22;57916;51.996;5.180;2022-10-04T05:52:14;15.00;66.20
70456;DHT22;57916;51.996;5.180;2022-10-04T05:54:42;15.00;66.60
70456;DHT22;57916;51.996;5.180;2022-10-04T06:11:30;15.00;67.30
70456;DHT22;57916;51.996;5.180;2022-10-04T06:22:56;15.00;67.20
70456;DHT22;57916;51.996;5.180;2022-10-04T06:25:28;15.10;67.30
70456;DHT22;57916;51.996;5.180;2022-10-04T06:28:22;15.10;67.10
70456;DHT22;57916;51.996;5.180;2022-10-04T06:31:14;15.10;67.00
70456;DHT22;57916;51.996;5.180;2022-10-04T06:36:45;15.20;66.70
70456;DHT22;57916;51.996;5.180;2022-10-04T06:44:57;15.10;66.60
70456;DHT22;57916;51.996;5.180;2022-10-04T06:47:57;15.10;66.60
70456;DHT22;57916;51.996;5.180;2022-10-04T06:56:20;15.00;66.90
70456;DHT22;57916;51.996;5.180;2022-10-04T06:59:15;15.00;67.70
70456;DHT22;57916;51.996;5.180;2022-10-04T07:01:52;15.10;68.90
70456;DHT22;57916;51.996;5.180;2022-10-04T07:04:32;15.40;69.40
70456;DHT22;57916;51.996;5.180;2022-10-04T07:16:26;17.30;65.70
70456;DHT22;57916;51.996;5.180;2022-10-04T07:24:58;18.80;60.70
70456;DHT22;57916;51.996;5.180;2022-10-04T07:30:05;19.50;58.80
70456;DHT22;57916;51.996;5.180;2022-10-04T07:32:41;19.80;58.00
70456;DHT22;57916;51.996;5.180;2022-10-04T07:40:21;20.70;55.80
70456;DHT22;57916;51.996;5.180;2022-10-04T07:42:57;20.80;55.10
70456;DHT22;57916;51.996;5.180;2022-10-04T07:45:34;20.90;54.80
70456;DHT22;57916;51.996;5.180;2022-10-04T07:48:18;20.80;55.20
70456;DHT22;57916;51.996;5.180;2022-10-04T08:16:08;18.90;59.80
70456;DHT22;57916;51.996;5.180;2022-10-04T08:21:16;18.70;60.80
70456;DHT22;57916;51.996;5.180;2022-10-04T08:29:31;18.80;61.60
70456;DHT22;57916;51.996;5.180;2022-10-04T08:43:31;19.00;60.90
70456;DHT22;57916;51.996;5.180;2022-10-04T08:58:14;18.90;60.80
70456;DHT22;57916;51.996;5.180;2022-10-04T09:07:50;18.90;61.80
70456;DHT22;57916;51.996;5.180;2022-10-04T09:12:47;19.10;62.20
70456;DHT22;57916;51.996;5.180;2022-10-04T09:15:28;19.30;62.10
70456;DHT22;57916;51.996;5.180;2022-10-04T09:21:09;19.90;60.00
70456;DHT22;57916;51.996;5.180;2022-10-04T09:35:17;21.70;55.10
70456;DHT22;57916;51.996;5.180;2022-10-04T09:38:02;22.10;53.90
70456;DHT22;57916;51.996;5.180;2022-10-04T09:43:16;22.30;53.70
70456;DHT22;57916;51.996;5.180;2022-10-04T09:48:34;22.70;52.70
70456;DHT22;57916;51.996;5.180;2022-10-04T09:57:17;23.10;51.10
70456;DHT22;57916;51.996;5.180;2022-10-04T10:10:48;23.60;50.90
70456;DHT22;57916;51.996;5.180;2022-10-04T10:36:06;24.20;48.80
70456;DHT22;57916;51.996;5.180;2022-10-04T10:41:50;24.20;49.40
70456;DHT22;57916;51.996;5.180;2022-10-04T10:56:15;24.00;47.90
70456;DHT22;57916;51.996;5.180;2022-10-04T11:10:09;24.00;47.80
70456;DHT22;57916;51.996;5.180;2022-10-04T11:25:10;23.60;48.00
70456;DHT22;57916;51.996;5.180;2022-10-04T11:28:08;23.50;48.50
70456;DHT22;57916;51.996;5.180;2022-10-04T11:34:01;23.20;48.90
70456;DHT22;57916;51.996;5.180;2022-10-04T11:39:32;22.80;49.40
70456;DHT22;57916;51.996;5.180;2022-10-04T11:42:36;22.80;50.00
70456;DHT22;57916;51.996;5.180;2022-10-04T11:47:52;22.60;49.80
70456;DHT22;57916;51.996;5.180;2022-10-04T11:53:07;22.40;50.60
70456;DHT22;57916;51.996;5.180;2022-10-04T12:01:57;22.40;51.40
70456;DHT22;57916;51.996;5.180;2022-10-04T12:04:54;22.20;50.30
70456;DHT22;57916;51.996;5.180;2022-10-04T12:21:14;21.80;52.10
70456;DHT22;57916;51.996;5.180;2022-10-04T12:32:23;21.80;51.80
70456;DHT22;57916;51.996;5.180;2022-10-04T12:43:29;21.80;51.50
70456;DHT22;57916;51.996;5.180;2022-10-04T12:54:59;21.60;52.60
70456;DHT22;57916;51.996;5.180;2022-10-04T12:57:40;21.50;52.10
70456;DHT22;57916;51.996;5.180;2022-10-04T13:00:21;21.50;52.80
70456;DHT22;57916;51.996;5.180;2022-10-04T13:19:44;21.70;52.60
70456;DHT22;57916;51.996;5.180;2022-10-04T13:31:12;21.60;52.10
70456;DHT22;57916;51.996;5.180;2022-10-04T13:33:49;21.60;53.40
70456;DHT22;57916;51.996;5.180;2022-10-04T13:47:41;21.50;53.40
70456;DHT22;57916;51.996;5.180;2022-10-04T13:58:50;21.50;54.10
70456;DHT22;57916;51.996;5.180;2022-10-04T14:07:10;21.40;54.10
70456;DHT22;57916;51.996;5.180;2022-10-04T14:10:36;21.40;54.30
70456;DHT22;57916;51.996;5.180;2022-10-04T14:16:17;21.50;54.60
70456;DHT22;57916;51.996;5.180;2022-10-04T14:22:03;21.50;55.50
70456;DHT22;57916;51.996;5.180;2022-10-04T14:24:45;21.50;55.40
70456;DHT22;57916;51.996;5.180;2022-10-04T14:27:19;21.60;54.80
70456;DHT22;57916;51.996;5.180;2022-10-04T14:29:54;21.60;54.30
70456;DHT22;57916;51.996;5.180;2022-10-04T14:33:03;21.60;54.30
70456;DHT22;57916;51.996;5.180;2022-10-04T15:01:25;21.70;54.70
70456;DHT22;57916;51.996;5.180;2022-10-04T15:03:57;21.70;54.80
70456;DHT22;57916;51.996;5.180;2022-10-04T15:06:53;21.70;54.70
70456;DHT22;57916;51.996;5.180;2022-10-04T15:09:32;21.70;55.30
70456;DHT22;57916;51.996;5.180;2022-10-04T15:12:43;21.70;55.50
70456;DHT22;57916;51.996;5.180;2022-10-04T15:15:57;21.70;55.10
70456;DHT22;57916;51.996;5.180;2022-10-04T15:21:38;21.70;55.50
70456;DHT22;57916;51.996;5.180;2022-10-04T15:24:26;21.60;55.90
70456;DHT22;57916;51.996;5.180;2022-10-04T15:33:06;21.60;55.70
70456;DHT22;57916;51.996;5.180;2022-10-04T15:38:52;21.50;56.10
70456;DHT22;57916;51.996;5.180;2022-10-04T15:46:43;21.50;56.80
70456;DHT22;57916;51.996;5.180;2022-10-04T15:52:09;21.40;57.80
70456;DHT22;57916;51.996;5.180;2022-10-04T15:55:16;21.50;58.20
70456;DHT22;57916;51.996;5.180;2022-10-04T16:07:01;21.50;57.80
70456;DHT22;57916;51.996;5.180;2022-10-04T16:09:36;21.50;57.90
70456;DHT22;57916;51.996;5.180;2022-10-04T16:15:00;21.40;58.30
70456;DHT22;57916;51.996;5.180;2022-10-04T16:25:51;21.40;58.60
70456;DHT22;57916;51.996;5.180;2022-10-04T16:28:41;21.40;58.70
70456;DHT22;57916;51.996;5.180;2022-10-04T16:31:44;21.40;58.70
70456;DHT22;57916;51.996;5.180;2022-10-04T16:37:30;21.30;59.30
70456;DHT22;57916;51.996;5.180;2022-10-04T16:40:02;21.30;59.00
70456;DHT22;57916;51.996;5.180;2022-10-04T17:02:44;21.10;58.90
70456;DHT22;57916;51.996;5.180;2022-10-04T17:05:43;21.10;59.20
70456;DHT22;57916;51.996;5.180;2022-10-04T17:13:34;20.90;59.40
70456;DHT22;57916;51.996;5.180;2022-10-04T17:16:04;21.00;59.60
70456;DHT22;57916;51.996;5.180;2022-10-04T17:21:40;21.00;59.80
70456;DHT22;57916;51.996;5.180;2022-10-04T17:24:23;20.90;59.90
70456;DHT22;57916;51.996;5.180;2022-10-04T17:29:58;21.00;60.00
70456;DHT22;57916;51.996;5.180;2022-10-04T17:32:43;21.00;60.00
70456;DHT22;57916;51.996;5.180;2022-10-04T17:38:35;20.90;60.00
70456;DHT22;57916;51.996;5.180;2022-10-04T17:47:16;20.90;60.20
70456;DHT22;57916;51.996;5.180;2022-10-04T17:50:03;20.90;60.20
70456;DHT22;57916;51.996;5.180;2022-10-04T17:52:59;20.90;60.40
70456;DHT22;57916;51.996;5.180;2022-10-04T17:55:56;20.80;60.50
70456;DHT22;57916;51.996;5.180;2022-10-04T17:58:39;20.80;60.50
70456;DHT22;57916;51.996;5.180;2022-10-04T18:01:12;20.80;60.50
70456;DHT22;57916;51.996;5.180;2022-10-04T18:03:49;20.80;60.70
70456;DHT22;57916;51.996;5.180;2022-10-04T18:06:32;20.70;60.80
70456;DHT22;57916;51.996;5.180;2022-10-04T18:11:48;20.70;61.00
70456;DHT22;57916;51.996;5.180;2022-10-04T18:17:06;20.70;61.00
70456;DHT22;57916;51.996;5.180;2022-10-04T18:22:18;20.70;61.00
70456;DHT22;57916;51.996;5.180;2022-10-04T18:24:48;20.70;61.10
70456;DHT22;57916;51.996;5.180;2022-10-04T18:27:28;20.70;61.10
70456;DHT22;57916;51.996;5.180;2022-10-04T18:30:12;20.70;61.20
70456;DHT22;57916;51.996;5.180;2022-10-04T18:32:49;20.80;61.20
70456;DHT22;57916;51.996;5.180;2022-10-04T18:35:23;20.70;61.30
70456;DHT22;57916;51.996;5.180;2022-10-04T18:38:20;20.70;61.30
70456;DHT22;57916;51.996;5.180;2022-10-04T18:41:01;20.70;61.30
70456;DHT22;57916;51.996;5.180;2022-10-04T18:44:04;20.70;61.40
70456;DHT22;57916;51.996;5.180;2022-10-04T18:46:39;20.70;61.50
70456;DHT22;57916;51.996;5.180;2022-10-04T18:49:18;20.60;61.40
70456;DHT22;57916;51.996;5.180;2022-10-04T18:57:24;20.60;61.60
70456;DHT22;57916;51.996;5.180;2022-10-04T19:00:09;20.60;61.60
70456;DHT22;57916;51.996;5.180;2022-10-04T19:06:11;20.60;61.60
70456;DHT22;57916;51.996;5.180;2022-10-04T19:11:28;20.60;61.50
70456;DHT22;57916;51.996;5.180;2022-10-04T19:20:00;20.50;61.60
70456;DHT22;57916;51.996;5.180;2022-10-04T19:23:00;20.40;61.50
70456;DHT22;57916;51.996;5.180;2022-10-04T19:25:35;20.40;61.30
70456;DHT22;57916;51.996;5.180;2022-10-04T19:28:16;20.40;61.20
70456;DHT22;57916;51.996;5.180;2022-10-04T19:36:44;20.40;61.40
70456;DHT22;57916;51.996;5.180;2022-10-04T19:42:27;20.30;61.30
70456;DHT22;57916;51.996;5.180;2022-10-04T19:45:21;20.30;61.40
70456;DHT22;57916;51.996;5.180;2022-10-04T19:47:56;20.30;61.30
70456;DHT22;57916;51.996;5.180;2022-10-04T19:50:28;20.30;61.40
70456;DHT22;57916;51.996;5.180;2022-10-04T19:55:53;20.20;61.30
70456;DHT22;57916;51.996;5.180;2022-10-04T19:58:40;20.20;61.30
70456;DHT22;57916;51.996;5.180;2022-10-04T20:01:16;20.20;61.30
70456;DHT22;57916;51.996;5.180;2022-10-04T20:03:44;20.20;61.40
70456;DHT22;57916;51.996;5.180;2022-10-04T20:06:20;20.20;61.40
70456;DHT22;57916;51.996;5.180;2022-10-04T20:11:57;20.20;61.50
70456;DHT22;57916;51.996;5.180;2022-10-04T20:21:50;20.10;61.80
70456;DHT22;57916;51.996;5.180;2022-10-04T20:27:07;20.00;61.80
70456;DHT22;57916;51.996;5.180;2022-10-04T20:34:57;20.00;61.80
70456;DHT22;57916;51.996;5.180;2022-10-04T20:45:47;20.00;61.80
70456;DHT22;57916;51.996;5.180;2022-10-04T20:48:26;20.00;61.70
70456;DHT22;57916;51.996;5.180;2022-10-04T20:50:54;20.00;61.80
70456;DHT22;57916;51.996;5.180;2022-10-04T20:55:50;20.00;61.70
70456;DHT22;57916;51.996;5.180;2022-10-04T20:58:33;20.00;61.70
70456;DHT22;57916;51.996;5.180;2022-10-04T21:01:05;20.00;61.80
70456;DHT22;57916;51.996;5.180;2022-10-04T21:03:49;20.00;61.70
70456;DHT22;57916;51.996;5.180;2022-10-04T21:06:16;20.10;62.00
70456;DHT22;57916;51.996;5.180;2022-10-04T21:08:43;20.10;62.00
70456;DHT22;57916;51.996;5.180;2022-10-04T21:14:00;20.10;61.80
70456;DHT22;57916;51.996;5.180;2022-10-04T21:19:56;20.10;61.70
70456;DHT22;57916;51.996;5.180;2022-10-04T21:24:54;20.20;61.80
70456;DHT22;57916;51.996;5.180;2022-10-04T21:27:37;20.20;61.70
70456;DHT22;57916;51.996;5.180;2022-10-04T21:30:15;20.20;61.80
70456;DHT22;57916;51.996;5.180;2022-10-04T21:32:43;20.20;61.90
70456;DHT22;57916;51.996;5.180;2022-10-04T21:35:11;20.20;61.80
70456;DHT22;57916;51.996;5.180;2022-10-04T21:37:38;20.20;61.90
70456;DHT22;57916;51.996;5.180;2022-10-04T21:40:05;20.20;61.90
70456;DHT22;57916;51.996;5.180;2022-10-04T21:42:33;20.20;61.90
70456;DHT22;57916;51.996;5.180;2022-10-04T21:45:00;20.20;62.00
70456;DHT22;57916;51.996;5.180;2022-10-04T21:47:27;20.10;62.00
70456;DHT22;57916;51.996;5.180;2022-10-04T21:49:54;20.10;62.10
70456;DHT22;57916;51.996;5.180;2022-10-04T21:52:21;20.10;62.20
70456;DHT22;57916;51.996;5.180;2022-10-04T21:54:48;20.00;62.20
70456;DHT22;57916;51.996;5.180;2022-10-04T21:57:15;20.00;62.50
70456;DHT22;57916;51.996;5.180;2022-10-04T21:59:41;20.00;62.50
70456;DHT22;57916;51.996;5.180;2022-10-04T22:02:08;20.00;62.80
70456;DHT22;57916;51.996;5.180;2022-10-04T22:04:35;20.00;62.70
70456;DHT22;57916;51.996;5.180;2022-10-04T22:07:03;19.90;62.70
70456;DHT22;57916;51.996;5.180;2022-10-04T22:09:31;19.90;62.90
70456;DHT22;57916;51.996;5.180;2022-10-04T22:11:59;19.90;62.90
70456;DHT22;57916;51.996;5.180;2022-10-04T22:14:26;19.90;62.90
70456;DHT22;57916;51.996;5.180;2022-10-04T22:16:53;19.90;63.00
70456;DHT22;57916;51.996;5.180;2022-10-04T22:19:20;19.80;63.00
70456;DHT22;57916;51.996;5.180;2022-10-04T22:21:47;19.80;63.10
70456;DHT22;57916;51.996;5.180;2022-10-04T22:24:17;19.80;63.10
70456;DHT22;57916;51.996;5.180;2022-10-04T22:26:44;19.80;63.10
70456;DHT22;57916;51.996;5.180;2022-10-04T22:29:14;19.80;63.10
70456;DHT22;57916;51.996;5.180;2022-10-04T22:31:48;19.80;63.10
70456;DHT22;57916;51.996;5.180;2022-10-04T22:34:17;19.70;63.10
70456;DHT22;57916;51.996;5.180;2022-10-04T22:36:45;19.70;63.10
70456;DHT22;57916;51.996;5.180;2022-10-04T22:39:16;19.80;63.60
70456;DHT22;57916;51.996;5.180;2022-10-04T22:41:51;19.70;63.20
70456;DHT22;57916;51.996;5.180;2022-10-04T22:44:21;19.80;63.10
70456;DHT22;57916;51.996;5.180;2022-10-04T22:46:51;19.80;63.00
70456;DHT22;57916;51.996;5.180;2022-10-04T22:49:24;19.80;63.10
70456;DHT22;57916;51.996;5.180;2022-10-04T22:51:53;19.80;63.10
70456;DHT22;57916;51.996;5.180;2022-10-04T22:54:29;19.80;63.20
70456;DHT22;57916;51.996;5.180;2022-10-04T22:56:57;19.80;63.20
70456;DHT22;57916;51.996;5.180;2022-10-04T22:59:37;19.80;63.30
70456;DHT22;57916;51.996;5.180;2022-10-04T23:02:12;19.70;63.20
70456;DHT22;57916;51.996;5.180;2022-10-04T23:04:42;19.70;63.20
70456;DHT22;57916;51.996;5.180;2022-10-04T23:07:10;19.70;63.40
70456;DHT22;57916;51.996;5.180;2022-10-04T23:09:36;19.70;63.30
70456;DHT22;57916;51.996;5.180;2022-10-04T23:12:06;19.70;63.30
70456;DHT22;57916;51.996;5.180;2022-10-04T23:14:38;19.70;63.40
70456;DHT22;57916;51.996;5.180;2022-10-04T23:17:27;19.70;63.40
70456;DHT22;57916;51.996;5.180;2022-10-04T23:20:00;19.70;63.30
70456;DHT22;57916;51.996;5.180;2022-10-04T23:22:30;19.70;63.30
70456;DHT22;57916;51.996;5.180;2022-10-04T23:24:57;19.60;63.40
70456;DHT22;57916;51.996;5.180;2022-10-04T23:27:24;19.60;63.50
70456;DHT22;57916;51.996;5.180;2022-10-04T23:29:57;19.60;63.50
70456;DHT22;57916;51.996;5.180;2022-10-04T23:32:26;19.60;63.60
70456;DHT22;57916;51.996;5.180;2022-10-04T23:34:54;19.60;63.60
70456;DHT22;57916;51.996;5.180;2022-10-04T23:37:25;19.60;63.60
70456;DHT22;57916;51.996;5.180;2022-10-04T23:39:53;19.60;63.60
70456;DHT22;57916;51.996;5.180;2022-10-04T23:42:23;19.60;63.60
70456;DHT22;57916;51.996;5.180;2022-10-04T23:44:55;19.60;63.70
70456;DHT22;57916;51.996;5.180;2022-10-04T23:47:31;19.50;63.70
70456;DHT22;57916;51.996;5.180;2022-10-04T23:54:35;19.50;63.80
70456;DHT22;57916;51.996;5.180;2022-10-04T23:57:02;19.50;63.80
70456;DHT22;57916;51.996;5.180;2022-10-04T23:59:29;19.50;63.80
